Khorramabad, Iran
Current Conditions -  °F | °C
As of 6:50 PM on Saturday 25 Oct 2014 (Local Time) from OICK Reporting Station
Clear Clear  
Wind Chill: 59°   Ceiling: Unl
Heat Index: 59°   Visibility: 6mi
Dew Point: 37°   Wind: 5mph
Humidity: 45%   Direction: 120°ESE
Pressure: 30.03"   Gusts: NA
Location:  33.47°N, 48.35°E
Report Text: OICK 251550Z 12004KT CAVOK 15/03 Q1017
Loading
Personal Weather Stations






























Interactive Weather Map
Tropical Storm Tracking
New forecast layout! Learn more

10-Day Weather Forecast

Advertisements
Track Severe Weather on mobile